Honjo, Japan
Current Conditions -  °F | °C
As of 9:00 PM on Friday 28 Nov 2014 (Local Time) from RJSK Reporting Station
Broken Clouds Broken Clouds  
Wind Chill: 52°   Ceiling: 9000
Heat Index: 52°   Visibility: 6mi
Dew Point: 45°   Wind: 9mph
Humidity: 76%   Direction: 110°ESE
Pressure: 30.06"   Gusts: NA
Location:  39.39°N, 140.08°E
Report Text: RJSK 281200Z 11008KT 9999 FEW030 SCT050 BKN090 11/07 Q1018
Loading
Personal Weather Stations






























Interactive Weather Map New forecast layout! Learn more

10-Day Weather Forecast

Advertisements
Track Severe Weather on mobile